sensor_id;sensor_type;location;lat;lon;timestamp;P1;durP1;ratioP1;P2;durP2;ratioP2
75165;SDS011;63747;48.042;10.088;2023-12-20T00:02:23;3.70;;;1.60;;
75165;SDS011;63747;48.042;10.088;2023-12-20T00:05:24;3.10;;;2.00;;
75165;SDS011;63747;48.042;10.088;2023-12-20T00:08:24;2.87;;;1.80;;
75165;SDS011;63747;48.042;10.088;2023-12-20T00:11:25;3.10;;;2.20;;
75165;SDS011;63747;48.042;10.088;2023-12-20T00:14:26;2.13;;;1.67;;
75165;SDS011;63747;48.042;10.088;2023-12-20T00:17:27;2.37;;;1.60;;
75165;SDS011;63747;48.042;10.088;2023-12-20T00:20:28;4.47;;;2.10;;
75165;SDS011;63747;48.042;10.088;2023-12-20T00:23:29;2.97;;;1.55;;
75165;SDS011;63747;48.042;10.088;2023-12-20T00:26:30;3.53;;;2.00;;
75165;SDS011;63747;48.042;10.088;2023-12-20T00:29:31;3.57;;;2.17;;
75165;SDS011;63747;48.042;10.088;2023-12-20T00:32:31;2.90;;;2.10;;
75165;SDS011;63747;48.042;10.088;2023-12-20T00:35:32;2.60;;;2.10;;
75165;SDS011;63747;48.042;10.088;2023-12-20T00:38:33;2.70;;;2.27;;
75165;SDS011;63747;48.042;10.088;2023-12-20T00:41:33;3.57;;;2.00;;
75165;SDS011;63747;48.042;10.088;2023-12-20T00:44:34;3.53;;;2.23;;
75165;SDS011;63747;48.042;10.088;2023-12-20T00:47:35;2.67;;;2.00;;
75165;SDS011;63747;48.042;10.088;2023-12-20T00:50:35;3.73;;;2.30;;
75165;SDS011;63747;48.042;10.088;2023-12-20T00:53:36;2.80;;;2.23;;
75165;SDS011;63747;48.042;10.088;2023-12-20T00:56:37;2.47;;;2.03;;
75165;SDS011;63747;48.042;10.088;2023-12-20T00:59:37;2.63;;;2.03;;
75165;SDS011;63747;48.042;10.088;2023-12-20T01:02:38;3.10;;;1.97;;
75165;SDS011;63747;48.042;10.088;2023-12-20T01:05:39;2.73;;;1.90;;
75165;SDS011;63747;48.042;10.088;2023-12-20T01:08:40;3.53;;;2.47;;
75165;SDS011;63747;48.042;10.088;2023-12-20T01:11:40;2.97;;;2.30;;
75165;SDS011;63747;48.042;10.088;2023-12-20T01:14:41;3.50;;;2.50;;
75165;SDS011;63747;48.042;10.088;2023-12-20T01:17:42;2.80;;;2.23;;
75165;SDS011;63747;48.042;10.088;2023-12-20T01:20:43;2.60;;;2.30;;
75165;SDS011;63747;48.042;10.088;2023-12-20T01:23:43;3.83;;;2.40;;
75165;SDS011;63747;48.042;10.088;2023-12-20T01:26:44;4.23;;;2.23;;
75165;SDS011;63747;48.042;10.088;2023-12-20T01:29:45;2.73;;;2.27;;
75165;SDS011;63747;48.042;10.088;2023-12-20T01:32:46;4.13;;;2.40;;
75165;SDS011;63747;48.042;10.088;2023-12-20T01:35:47;2.97;;;2.10;;
75165;SDS011;63747;48.042;10.088;2023-12-20T01:38:47;2.80;;;2.40;;
75165;SDS011;63747;48.042;10.088;2023-12-20T01:41:48;2.67;;;2.10;;
75165;SDS011;63747;48.042;10.088;2023-12-20T01:44:49;2.40;;;2.10;;
75165;SDS011;63747;48.042;10.088;2023-12-20T01:47:49;2.20;;;1.93;;
75165;SDS011;63747;48.042;10.088;2023-12-20T01:50:51;2.35;;;2.00;;
75165;SDS011;63747;48.042;10.088;2023-12-20T01:53:52;2.35;;;1.83;;
75165;SDS011;63747;48.042;10.088;2023-12-20T01:59:54;2.47;;;1.73;;
75165;SDS011;63747;48.042;10.088;2023-12-20T02:02:56;2.30;;;1.80;;
75165;SDS011;63747;48.042;10.088;2023-12-20T02:06:01;2.55;;;2.03;;
75165;SDS011;63747;48.042;10.088;2023-12-20T02:09:01;2.03;;;1.80;;
75165;SDS011;63747;48.042;10.088;2023-12-20T02:12:02;1.90;;;1.50;;
75165;SDS011;63747;48.042;10.088;2023-12-20T02:15:04;3.00;;;1.85;;
75165;SDS011;63747;48.042;10.088;2023-12-20T02:18:05;2.30;;;2.00;;
75165;SDS011;63747;48.042;10.088;2023-12-20T02:21:06;2.20;;;2.00;;
75165;SDS011;63747;48.042;10.088;2023-12-20T02:24:07;2.67;;;2.07;;
75165;SDS011;63747;48.042;10.088;2023-12-20T02:27:08;2.70;;;2.03;;
75165;SDS011;63747;48.042;10.088;2023-12-20T02:30:09;4.65;;;2.40;;
75165;SDS011;63747;48.042;10.088;2023-12-20T02:33:10;3.90;;;2.30;;
75165;SDS011;63747;48.042;10.088;2023-12-20T02:36:13;2.80;;;2.55;;
75165;SDS011;63747;48.042;10.088;2023-12-20T02:39:13;3.50;;;2.43;;
75165;SDS011;63747;48.042;10.088;2023-12-20T02:42:14;3.50;;;2.53;;
75165;SDS011;63747;48.042;10.088;2023-12-20T02:45:15;3.77;;;2.87;;
75165;SDS011;63747;48.042;10.088;2023-12-20T02:48:15;2.97;;;2.50;;
75165;SDS011;63747;48.042;10.088;2023-12-20T02:51:16;3.03;;;2.70;;
75165;SDS011;63747;48.042;10.088;2023-12-20T02:54:17;3.20;;;2.70;;
75165;SDS011;63747;48.042;10.088;2023-12-20T02:57:17;3.10;;;2.30;;
75165;SDS011;63747;48.042;10.088;2023-12-20T03:00:18;3.13;;;2.80;;
75165;SDS011;63747;48.042;10.088;2023-12-20T03:03:19;4.50;;;3.20;;
75165;SDS011;63747;48.042;10.088;2023-12-20T03:06:20;3.83;;;2.67;;
75165;SDS011;63747;48.042;10.088;2023-12-20T03:09:21;3.07;;;2.53;;
75165;SDS011;63747;48.042;10.088;2023-12-20T03:12:21;3.03;;;2.40;;
75165;SDS011;63747;48.042;10.088;2023-12-20T03:15:22;5.00;;;3.07;;
75165;SDS011;63747;48.042;10.088;2023-12-20T03:18:22;2.97;;;2.47;;
75165;SDS011;63747;48.042;10.088;2023-12-20T03:21:23;3.87;;;2.67;;
75165;SDS011;63747;48.042;10.088;2023-12-20T03:24:24;3.37;;;2.63;;
75165;SDS011;63747;48.042;10.088;2023-12-20T03:27:24;3.97;;;2.87;;
75165;SDS011;63747;48.042;10.088;2023-12-20T03:30:25;3.20;;;2.63;;
75165;SDS011;63747;48.042;10.088;2023-12-20T03:33:26;3.77;;;2.97;;
75165;SDS011;63747;48.042;10.088;2023-12-20T03:36:26;3.77;;;3.20;;
75165;SDS011;63747;48.042;10.088;2023-12-20T03:39:27;3.80;;;3.10;;
75165;SDS011;63747;48.042;10.088;2023-12-20T03:42:28;4.77;;;3.40;;
75165;SDS011;63747;48.042;10.088;2023-12-20T03:45:28;4.10;;;3.17;;
75165;SDS011;63747;48.042;10.088;2023-12-20T03:48:30;7.87;;;3.60;;
75165;SDS011;63747;48.042;10.088;2023-12-20T03:54:31;4.22;;;3.40;;
75165;SDS011;63747;48.042;10.088;2023-12-20T03:57:32;4.20;;;3.77;;
75165;SDS011;63747;48.042;10.088;2023-12-20T04:00:33;4.90;;;3.80;;
75165;SDS011;63747;48.042;10.088;2023-12-20T04:03:34;5.87;;;4.30;;
75165;SDS011;63747;48.042;10.088;2023-12-20T04:06:34;6.60;;;4.17;;
75165;SDS011;63747;48.042;10.088;2023-12-20T04:09:35;6.63;;;4.43;;
75165;SDS011;63747;48.042;10.088;2023-12-20T04:12:36;5.13;;;4.40;;
75165;SDS011;63747;48.042;10.088;2023-12-20T04:15:37;6.47;;;4.83;;
75165;SDS011;63747;48.042;10.088;2023-12-20T04:18:38;7.65;;;5.30;;
75165;SDS011;63747;48.042;10.088;2023-12-20T04:21:39;5.47;;;4.87;;
75165;SDS011;63747;48.042;10.088;2023-12-20T04:24:39;6.07;;;5.23;;
75165;SDS011;63747;48.042;10.088;2023-12-20T04:27:42;5.78;;;4.78;;
75165;SDS011;63747;48.042;10.088;2023-12-20T04:30:42;6.67;;;5.90;;
75165;SDS011;63747;48.042;10.088;2023-12-20T04:33:43;6.47;;;5.30;;
75165;SDS011;63747;48.042;10.088;2023-12-20T04:36:44;7.20;;;6.00;;
75165;SDS011;63747;48.042;10.088;2023-12-20T04:39:45;8.77;;;6.15;;
75165;SDS011;63747;48.042;10.088;2023-12-20T04:42:46;7.53;;;6.60;;
75165;SDS011;63747;48.042;10.088;2023-12-20T04:45:47;7.87;;;5.97;;
75165;SDS011;63747;48.042;10.088;2023-12-20T04:48:47;7.80;;;6.13;;
75165;SDS011;63747;48.042;10.088;2023-12-20T04:51:48;8.57;;;6.13;;
75165;SDS011;63747;48.042;10.088;2023-12-20T04:54:49;7.97;;;6.63;;
75165;SDS011;63747;48.042;10.088;2023-12-20T04:57:49;7.77;;;6.33;;
75165;SDS011;63747;48.042;10.088;2023-12-20T05:00:50;8.33;;;5.83;;
75165;SDS011;63747;48.042;10.088;2023-12-20T05:03:51;9.63;;;6.30;;
75165;SDS011;63747;48.042;10.088;2023-12-20T05:06:52;6.80;;;5.83;;
75165;SDS011;63747;48.042;10.088;2023-12-20T05:09:52;6.53;;;5.10;;
75165;SDS011;63747;48.042;10.088;2023-12-20T05:12:53;6.53;;;5.57;;
75165;SDS011;63747;48.042;10.088;2023-12-20T05:15:54;7.10;;;6.40;;
75165;SDS011;63747;48.042;10.088;2023-12-20T05:18:54;5.93;;;5.23;;
75165;SDS011;63747;48.042;10.088;2023-12-20T05:21:56;6.47;;;5.07;;
75165;SDS011;63747;48.042;10.088;2023-12-20T05:24:56;7.33;;;5.53;;
75165;SDS011;63747;48.042;10.088;2023-12-20T05:27:57;7.03;;;5.37;;
75165;SDS011;63747;48.042;10.088;2023-12-20T05:30:58;5.23;;;4.27;;
75165;SDS011;63747;48.042;10.088;2023-12-20T05:33:59;4.45;;;4.05;;
75165;SDS011;63747;48.042;10.088;2023-12-20T05:37:02;4.27;;;3.70;;
75165;SDS011;63747;48.042;10.088;2023-12-20T05:40:03;4.40;;;3.78;;
75165;SDS011;63747;48.042;10.088;2023-12-20T05:43:04;4.55;;;4.05;;
75165;SDS011;63747;48.042;10.088;2023-12-20T05:46:05;4.27;;;3.50;;
75165;SDS011;63747;48.042;10.088;2023-12-20T05:49:06;4.00;;;3.40;;
75165;SDS011;63747;48.042;10.088;2023-12-20T05:52:07;4.60;;;3.38;;
75165;SDS011;63747;48.042;10.088;2023-12-20T05:55:07;4.60;;;3.60;;
75165;SDS011;63747;48.042;10.088;2023-12-20T05:58:08;4.17;;;2.90;;
75165;SDS011;63747;48.042;10.088;2023-12-20T06:01:09;3.43;;;3.03;;
75165;SDS011;63747;48.042;10.088;2023-12-20T06:04:09;3.63;;;3.00;;
75165;SDS011;63747;48.042;10.088;2023-12-20T06:07:13;3.57;;;3.03;;
75165;SDS011;63747;48.042;10.088;2023-12-20T06:10:14;3.50;;;2.92;;
75165;SDS011;63747;48.042;10.088;2023-12-20T06:13:15;3.57;;;3.10;;
75165;SDS011;63747;48.042;10.088;2023-12-20T06:16:16;2.63;;;2.43;;
75165;SDS011;63747;48.042;10.088;2023-12-20T06:19:16;3.20;;;2.83;;
75165;SDS011;63747;48.042;10.088;2023-12-20T06:22:17;3.37;;;3.07;;
75165;SDS011;63747;48.042;10.088;2023-12-20T06:25:18;4.30;;;3.27;;
75165;SDS011;63747;48.042;10.088;2023-12-20T06:28:19;3.63;;;2.83;;
75165;SDS011;63747;48.042;10.088;2023-12-20T06:31:19;2.53;;;2.20;;
75165;SDS011;63747;48.042;10.088;2023-12-20T06:34:20;2.77;;;2.37;;
75165;SDS011;63747;48.042;10.088;2023-12-20T06:37:21;3.10;;;2.43;;
75165;SDS011;63747;48.042;10.088;2023-12-20T06:40:21;2.43;;;2.10;;
75165;SDS011;63747;48.042;10.088;2023-12-20T06:43:22;4.23;;;2.40;;
75165;SDS011;63747;48.042;10.088;2023-12-20T06:46:23;3.73;;;2.30;;
75165;SDS011;63747;48.042;10.088;2023-12-20T06:49:23;2.50;;;2.17;;
75165;SDS011;63747;48.042;10.088;2023-12-20T06:52:24;2.43;;;2.23;;
75165;SDS011;63747;48.042;10.088;2023-12-20T06:55:24;3.00;;;2.40;;
75165;SDS011;63747;48.042;10.088;2023-12-20T06:58:25;3.33;;;2.70;;
75165;SDS011;63747;48.042;10.088;2023-12-20T07:01:26;3.37;;;2.60;;
75165;SDS011;63747;48.042;10.088;2023-12-20T07:04:26;2.80;;;2.40;;
75165;SDS011;63747;48.042;10.088;2023-12-20T07:07:27;3.13;;;2.57;;
75165;SDS011;63747;48.042;10.088;2023-12-20T07:10:28;2.80;;;2.50;;
75165;SDS011;63747;48.042;10.088;2023-12-20T07:13:29;3.10;;;2.70;;
75165;SDS011;63747;48.042;10.088;2023-12-20T07:16:30;3.85;;;3.22;;
75165;SDS011;63747;48.042;10.088;2023-12-20T07:19:31;3.15;;;2.85;;
75165;SDS011;63747;48.042;10.088;2023-12-20T07:22:33;4.23;;;3.60;;
75165;SDS011;63747;48.042;10.088;2023-12-20T07:25:34;4.32;;;3.60;;
75165;SDS011;63747;48.042;10.088;2023-12-20T07:28:34;4.07;;;3.63;;
75165;SDS011;63747;48.042;10.088;2023-12-20T07:31:35;4.00;;;3.60;;
75165;SDS011;63747;48.042;10.088;2023-12-20T07:34:36;3.60;;;3.30;;
75165;SDS011;63747;48.042;10.088;2023-12-20T07:37:36;4.63;;;4.10;;
75165;SDS011;63747;48.042;10.088;2023-12-20T07:40:37;4.70;;;3.80;;
75165;SDS011;63747;48.042;10.088;2023-12-20T07:43:38;6.85;;;4.65;;
75165;SDS011;63747;48.042;10.088;2023-12-20T07:46:39;4.53;;;3.93;;
75165;SDS011;63747;48.042;10.088;2023-12-20T07:49:41;5.22;;;4.30;;
75165;SDS011;63747;48.042;10.088;2023-12-20T07:52:41;4.57;;;4.10;;
75165;SDS011;63747;48.042;10.088;2023-12-20T07:55:42;4.53;;;4.13;;
75165;SDS011;63747;48.042;10.088;2023-12-20T07:58:43;5.20;;;4.43;;
75165;SDS011;63747;48.042;10.088;2023-12-20T08:01:44;4.60;;;4.13;;
75165;SDS011;63747;48.042;10.088;2023-12-20T08:04:45;4.30;;;3.90;;
75165;SDS011;63747;48.042;10.088;2023-12-20T08:07:45;4.40;;;3.90;;
75165;SDS011;63747;48.042;10.088;2023-12-20T08:10:46;5.83;;;4.10;;
75165;SDS011;63747;48.042;10.088;2023-12-20T08:13:47;4.23;;;3.83;;
75165;SDS011;63747;48.042;10.088;2023-12-20T08:16:48;5.60;;;4.03;;
75165;SDS011;63747;48.042;10.088;2023-12-20T08:19:49;4.40;;;3.67;;
75165;SDS011;63747;48.042;10.088;2023-12-20T08:22:49;5.03;;;3.97;;
75165;SDS011;63747;48.042;10.088;2023-12-20T08:25:50;4.20;;;3.53;;
75165;SDS011;63747;48.042;10.088;2023-12-20T08:28:51;3.93;;;3.53;;
75165;SDS011;63747;48.042;10.088;2023-12-20T08:31:52;3.93;;;3.53;;
75165;SDS011;63747;48.042;10.088;2023-12-20T08:34:54;4.50;;;3.70;;
75165;SDS011;63747;48.042;10.088;2023-12-20T08:37:54;4.37;;;3.73;;
75165;SDS011;63747;48.042;10.088;2023-12-20T08:40:55;3.87;;;3.27;;
75165;SDS011;63747;48.042;10.088;2023-12-20T08:43:56;4.15;;;3.70;;
75165;SDS011;63747;48.042;10.088;2023-12-20T08:46:57;4.17;;;3.60;;
75165;SDS011;63747;48.042;10.088;2023-12-20T08:49:58;4.17;;;3.60;;
75165;SDS011;63747;48.042;10.088;2023-12-20T08:53:00;3.80;;;3.30;;
75165;SDS011;63747;48.042;10.088;2023-12-20T08:56:00;3.80;;;3.40;;
75165;SDS011;63747;48.042;10.088;2023-12-20T08:59:01;3.67;;;3.23;;
75165;SDS011;63747;48.042;10.088;2023-12-20T09:02:02;4.07;;;3.20;;
75165;SDS011;63747;48.042;10.088;2023-12-20T09:05:03;3.40;;;3.10;;
75165;SDS011;63747;48.042;10.088;2023-12-20T09:08:04;3.30;;;2.78;;
75165;SDS011;63747;48.042;10.088;2023-12-20T09:11:06;3.33;;;2.67;;
75165;SDS011;63747;48.042;10.088;2023-12-20T09:17:07;2.53;;;2.25;;
75165;SDS011;63747;48.042;10.088;2023-12-20T09:20:09;2.97;;;2.67;;
75165;SDS011;63747;48.042;10.088;2023-12-20T09:23:10;2.97;;;2.67;;
75165;SDS011;63747;48.042;10.088;2023-12-20T09:26:10;3.40;;;2.63;;
75165;SDS011;63747;48.042;10.088;2023-12-20T09:29:11;2.80;;;2.40;;
75165;SDS011;63747;48.042;10.088;2023-12-20T09:32:15;2.50;;;2.30;;
75165;SDS011;63747;48.042;10.088;2023-12-20T09:35:16;2.23;;;2.03;;
75165;SDS011;63747;48.042;10.088;2023-12-20T09:38:16;2.80;;;2.20;;
75165;SDS011;63747;48.042;10.088;2023-12-20T09:41:17;2.60;;;2.27;;
75165;SDS011;63747;48.042;10.088;2023-12-20T09:44:18;3.10;;;2.10;;
75165;SDS011;63747;48.042;10.088;2023-12-20T09:47:19;3.47;;;2.20;;
75165;SDS011;63747;48.042;10.088;2023-12-20T09:50:24;2.30;;;2.10;;
75165;SDS011;63747;48.042;10.088;2023-12-20T09:53:25;2.45;;;1.98;;
75165;SDS011;63747;48.042;10.088;2023-12-20T09:56:30;3.85;;;1.70;;
75165;SDS011;63747;48.042;10.088;2023-12-20T09:59:31;2.80;;;1.97;;
75165;SDS011;63747;48.042;10.088;2023-12-20T10:02:31;2.17;;;1.97;;
75165;SDS011;63747;48.042;10.088;2023-12-20T10:05:32;1.80;;;1.57;;
75165;SDS011;63747;48.042;10.088;2023-12-20T10:08:34;2.42;;;2.00;;
75165;SDS011;63747;48.042;10.088;2023-12-20T10:11:36;2.58;;;1.80;;
75165;SDS011;63747;48.042;10.088;2023-12-20T10:14:40;2.58;;;1.73;;
75165;SDS011;63747;48.042;10.088;2023-12-20T10:17:40;1.80;;;1.70;;
75165;SDS011;63747;48.042;10.088;2023-12-20T10:20:41;4.13;;;2.10;;
75165;SDS011;63747;48.042;10.088;2023-12-20T10:23:42;2.60;;;2.00;;
75165;SDS011;63747;48.042;10.088;2023-12-20T10:26:43;2.77;;;1.73;;
75165;SDS011;63747;48.042;10.088;2023-12-20T10:29:44;3.07;;;2.20;;
75165;SDS011;63747;48.042;10.088;2023-12-20T10:32:45;2.10;;;1.90;;
75165;SDS011;63747;48.042;10.088;2023-12-20T10:35:45;2.60;;;2.20;;
75165;SDS011;63747;48.042;10.088;2023-12-20T10:38:48;2.45;;;1.95;;
75165;SDS011;63747;48.042;10.088;2023-12-20T10:41:51;2.22;;;1.75;;
75165;SDS011;63747;48.042;10.088;2023-12-20T10:44:51;2.20;;;1.73;;
75165;SDS011;63747;48.042;10.088;2023-12-20T10:47:53;1.90;;;1.70;;
75165;SDS011;63747;48.042;10.088;2023-12-20T10:50:55;1.67;;;1.45;;
75165;SDS011;63747;48.042;10.088;2023-12-20T10:53:56;1.92;;;1.50;;
75165;SDS011;63747;48.042;10.088;2023-12-20T10:56:57;1.42;;;1.33;;
75165;SDS011;63747;48.042;10.088;2023-12-20T11:00:00;2.00;;;1.65;;
75165;SDS011;63747;48.042;10.088;2023-12-20T11:03:04;1.83;;;1.50;;
75165;SDS011;63747;48.042;10.088;2023-12-20T11:06:10;1.23;;;1.13;;
75165;SDS011;63747;48.042;10.088;2023-12-20T11:09:41;1.88;;;1.40;;
75165;SDS011;63747;48.042;10.088;2023-12-20T11:12:53;1.83;;;1.10;;
75165;SDS011;63747;48.042;10.088;2023-12-20T11:15:59;1.20;;;1.10;;
75165;SDS011;63747;48.042;10.088;2023-12-20T11:19:04;1.75;;;1.10;;
75165;SDS011;63747;48.042;10.088;2023-12-20T11:22:05;1.10;;;1.00;;
75165;SDS011;63747;48.042;10.088;2023-12-20T11:25:07;2.10;;;1.50;;
75165;SDS011;63747;48.042;10.088;2023-12-20T11:28:10;1.45;;;1.35;;
75165;SDS011;63747;48.042;10.088;2023-12-20T11:31:12;1.55;;;1.10;;
75165;SDS011;63747;48.042;10.088;2023-12-20T11:34:14;1.85;;;1.40;;
75165;SDS011;63747;48.042;10.088;2023-12-20T11:37:17;1.48;;;1.20;;
75165;SDS011;63747;48.042;10.088;2023-12-20T11:40:20;1.55;;;1.30;;
75165;SDS011;63747;48.042;10.088;2023-12-20T11:46:34;2.60;;;1.50;;
75165;SDS011;63747;48.042;10.088;2023-12-20T11:49:35;1.43;;;1.33;;
75165;SDS011;63747;48.042;10.088;2023-12-20T11:52:36;1.57;;;1.23;;
75165;SDS011;63747;48.042;10.088;2023-12-20T11:55:37;2.00;;;1.35;;
75165;SDS011;63747;48.042;10.088;2023-12-20T11:58:37;2.03;;;1.30;;
75165;SDS011;63747;48.042;10.088;2023-12-20T12:01:38;1.47;;;1.30;;
75165;SDS011;63747;48.042;10.088;2023-12-20T12:04:42;1.70;;;1.30;;
75165;SDS011;63747;48.042;10.088;2023-12-20T12:07:43;2.25;;;1.55;;
75165;SDS011;63747;48.042;10.088;2023-12-20T12:10:44;2.00;;;1.57;;
75165;SDS011;63747;48.042;10.088;2023-12-20T12:13:45;1.98;;;1.30;;
75165;SDS011;63747;48.042;10.088;2023-12-20T12:16:46;1.60;;;1.10;;
75165;SDS011;63747;48.042;10.088;2023-12-20T12:19:47;0.90;;;0.77;;
75165;SDS011;63747;48.042;10.088;2023-12-20T12:23:08;0.53;;;0.40;;
75165;SDS011;63747;48.042;10.088;2023-12-20T12:26:08;0.63;;;0.40;;
75165;SDS011;63747;48.042;10.088;2023-12-20T12:29:09;2.77;;;1.00;;
75165;SDS011;63747;48.042;10.088;2023-12-20T12:32:10;0.40;;;0.40;;
75165;SDS011;63747;48.042;10.088;2023-12-20T12:35:10;1.00;;;0.40;;
75165;SDS011;63747;48.042;10.088;2023-12-20T12:38:11;1.00;;;0.53;;
75165;SDS011;63747;48.042;10.088;2023-12-20T12:41:12;3.50;;;0.50;;
75165;SDS011;63747;48.042;10.088;2023-12-20T12:44:15;1.60;;;1.33;;
75165;SDS011;63747;48.042;10.088;2023-12-20T12:47:16;0.87;;;0.50;;
75165;SDS011;63747;48.042;10.088;2023-12-20T12:50:16;0.97;;;0.87;;
75165;SDS011;63747;48.042;10.088;2023-12-20T12:53:17;1.47;;;1.03;;
75165;SDS011;63747;48.042;10.088;2023-12-20T12:56:18;2.03;;;0.97;;
75165;SDS011;63747;48.042;10.088;2023-12-20T12:59:18;1.20;;;1.10;;
75165;SDS011;63747;48.042;10.088;2023-12-20T13:02:19;0.80;;;0.60;;
75165;SDS011;63747;48.042;10.088;2023-12-20T13:05:20;1.00;;;0.60;;
75165;SDS011;63747;48.042;10.088;2023-12-20T13:08:21;1.77;;;0.77;;
75165;SDS011;63747;48.042;10.088;2023-12-20T13:11:21;0.40;;;0.40;;
75165;SDS011;63747;48.042;10.088;2023-12-20T13:14:22;0.57;;;0.37;;
75165;SDS011;63747;48.042;10.088;2023-12-20T13:17:23;1.13;;;0.67;;
75165;SDS011;63747;48.042;10.088;2023-12-20T13:20:24;1.67;;;0.60;;
75165;SDS011;63747;48.042;10.088;2023-12-20T13:23:24;0.90;;;0.47;;
75165;SDS011;63747;48.042;10.088;2023-12-20T13:26:25;2.20;;;1.30;;
75165;SDS011;63747;48.042;10.088;2023-12-20T13:29:26;1.08;;;0.75;;
75165;SDS011;63747;48.042;10.088;2023-12-20T13:32:27;0.70;;;0.60;;
75165;SDS011;63747;48.042;10.088;2023-12-20T13:35:28;0.50;;;0.40;;
75165;SDS011;63747;48.042;10.088;2023-12-20T13:38:28;0.70;;;0.57;;
75165;SDS011;63747;48.042;10.088;2023-12-20T13:41:29;0.60;;;0.50;;
75165;SDS011;63747;48.042;10.088;2023-12-20T13:44:30;0.90;;;0.65;;
75165;SDS011;63747;48.042;10.088;2023-12-20T13:47:31;2.43;;;0.70;;
75165;SDS011;63747;48.042;10.088;2023-12-20T13:50:32;2.05;;;0.70;;
75165;SDS011;63747;48.042;10.088;2023-12-20T13:53:33;1.37;;;0.70;;
75165;SDS011;63747;48.042;10.088;2023-12-20T13:56:34;3.78;;;0.90;;
75165;SDS011;63747;48.042;10.088;2023-12-20T13:59:35;0.90;;;0.60;;
75165;SDS011;63747;48.042;10.088;2023-12-20T14:02:35;1.07;;;0.60;;
75165;SDS011;63747;48.042;10.088;2023-12-20T14:05:36;0.87;;;0.67;;
75165;SDS011;63747;48.042;10.088;2023-12-20T14:08:37;1.83;;;0.70;;
75165;SDS011;63747;48.042;10.088;2023-12-20T14:11:37;1.00;;;0.70;;
75165;SDS011;63747;48.042;10.088;2023-12-20T14:14:41;1.80;;;0.73;;
75165;SDS011;63747;48.042;10.088;2023-12-20T14:17:42;1.57;;;1.10;;
75165;SDS011;63747;48.042;10.088;2023-12-20T14:20:42;3.70;;;1.90;;
75165;SDS011;63747;48.042;10.088;2023-12-20T14:26:46;4.88;;;2.42;;
75165;SDS011;63747;48.042;10.088;2023-12-20T14:29:47;3.60;;;2.30;;
75165;SDS011;63747;48.042;10.088;2023-12-20T14:32:47;2.87;;;1.37;;
75165;SDS011;63747;48.042;10.088;2023-12-20T14:35:48;1.63;;;1.17;;
75165;SDS011;63747;48.042;10.088;2023-12-20T14:38:49;2.97;;;1.10;;
75165;SDS011;63747;48.042;10.088;2023-12-20T14:41:50;4.93;;;1.33;;
75165;SDS011;63747;48.042;10.088;2023-12-20T14:44:51;3.03;;;1.00;;
75165;SDS011;63747;48.042;10.088;2023-12-20T14:47:54;2.15;;;0.85;;
75165;SDS011;63747;48.042;10.088;2023-12-20T14:50:55;2.00;;;1.20;;
75165;SDS011;63747;48.042;10.088;2023-12-20T14:53:56;3.10;;;0.93;;
75165;SDS011;63747;48.042;10.088;2023-12-20T14:56:58;1.50;;;1.20;;
75165;SDS011;63747;48.042;10.088;2023-12-20T14:59:59;1.33;;;0.85;;
75165;SDS011;63747;48.042;10.088;2023-12-20T15:03:00;1.77;;;1.00;;
75165;SDS011;63747;48.042;10.088;2023-12-20T15:06:01;1.50;;;1.00;;
75165;SDS011;63747;48.042;10.088;2023-12-20T15:09:02;1.57;;;0.80;;
75165;SDS011;63747;48.042;10.088;2023-12-20T15:12:05;1.98;;;0.95;;
75165;SDS011;63747;48.042;10.088;2023-12-20T15:15:06;2.20;;;1.10;;
75165;SDS011;63747;48.042;10.088;2023-12-20T15:18:09;5.28;;;1.90;;
75165;SDS011;63747;48.042;10.088;2023-12-20T15:21:10;3.40;;;1.50;;
75165;SDS011;63747;48.042;10.088;2023-12-20T15:24:11;3.13;;;1.50;;
75165;SDS011;63747;48.042;10.088;2023-12-20T15:27:16;2.83;;;1.30;;
75165;SDS011;63747;48.042;10.088;2023-12-20T15:30:16;3.10;;;1.13;;
75165;SDS011;63747;48.042;10.088;2023-12-20T15:33:18;3.45;;;1.30;;
75165;SDS011;63747;48.042;10.088;2023-12-20T15:36:19;3.37;;;1.50;;
75165;SDS011;63747;48.042;10.088;2023-12-20T15:39:19;3.72;;;1.50;;
75165;SDS011;63747;48.042;10.088;2023-12-20T15:42:20;4.40;;;1.37;;
75165;SDS011;63747;48.042;10.088;2023-12-20T15:45:21;4.70;;;1.57;;
75165;SDS011;63747;48.042;10.088;2023-12-20T15:48:22;4.50;;;1.37;;
75165;SDS011;63747;48.042;10.088;2023-12-20T15:51:28;4.45;;;1.75;;
75165;SDS011;63747;48.042;10.088;2023-12-20T15:54:28;4.17;;;1.37;;
75165;SDS011;63747;48.042;10.088;2023-12-20T15:57:29;3.53;;;1.50;;
75165;SDS011;63747;48.042;10.088;2023-12-20T16:00:30;3.40;;;1.70;;
75165;SDS011;63747;48.042;10.088;2023-12-20T16:03:31;6.55;;;1.98;;
75165;SDS011;63747;48.042;10.088;2023-12-20T16:06:32;5.30;;;2.53;;
75165;SDS011;63747;48.042;10.088;2023-12-20T16:09:34;3.78;;;1.90;;
75165;SDS011;63747;48.042;10.088;2023-12-20T16:12:35;4.70;;;1.17;;
75165;SDS011;63747;48.042;10.088;2023-12-20T16:15:36;5.17;;;1.70;;
75165;SDS011;63747;48.042;10.088;2023-12-20T16:18:37;3.77;;;1.53;;
75165;SDS011;63747;48.042;10.088;2023-12-20T16:21:38;5.10;;;1.97;;
75165;SDS011;63747;48.042;10.088;2023-12-20T16:24:39;4.13;;;1.83;;
75165;SDS011;63747;48.042;10.088;2023-12-20T16:27:39;6.73;;;2.07;;
75165;SDS011;63747;48.042;10.088;2023-12-20T16:30:40;5.00;;;2.30;;
75165;SDS011;63747;48.042;10.088;2023-12-20T16:33:41;3.83;;;2.10;;
75165;SDS011;63747;48.042;10.088;2023-12-20T16:36:49;5.20;;;3.13;;
75165;SDS011;63747;48.042;10.088;2023-12-20T16:39:51;5.25;;;2.15;;
75165;SDS011;63747;48.042;10.088;2023-12-20T16:42:52;6.93;;;3.27;;
75165;SDS011;63747;48.042;10.088;2023-12-20T16:45:56;5.60;;;2.40;;
75165;SDS011;63747;48.042;10.088;2023-12-20T16:48:56;5.70;;;1.83;;
75165;SDS011;63747;48.042;10.088;2023-12-20T16:51:57;4.63;;;2.00;;
75165;SDS011;63747;48.042;10.088;2023-12-20T16:54:58;7.13;;;3.40;;
75165;SDS011;63747;48.042;10.088;2023-12-20T16:57:59;5.17;;;2.43;;
75165;SDS011;63747;48.042;10.088;2023-12-20T17:00:59;5.47;;;2.63;;
75165;SDS011;63747;48.042;10.088;2023-12-20T17:04:01;6.33;;;3.27;;
75165;SDS011;63747;48.042;10.088;2023-12-20T17:07:02;7.45;;;3.35;;
75165;SDS011;63747;48.042;10.088;2023-12-20T17:10:03;7.07;;;3.40;;
75165;SDS011;63747;48.042;10.088;2023-12-20T17:13:04;6.95;;;3.85;;
75165;SDS011;63747;48.042;10.088;2023-12-20T17:16:05;4.10;;;2.55;;
75165;SDS011;63747;48.042;10.088;2023-12-20T17:19:06;3.78;;;2.30;;
75165;SDS011;63747;48.042;10.088;2023-12-20T17:22:07;6.20;;;3.03;;
75165;SDS011;63747;48.042;10.088;2023-12-20T17:25:08;7.70;;;3.92;;
75165;SDS011;63747;48.042;10.088;2023-12-20T17:28:11;6.25;;;3.70;;
75165;SDS011;63747;48.042;10.088;2023-12-20T17:31:12;4.70;;;2.60;;
75165;SDS011;63747;48.042;10.088;2023-12-20T17:34:13;3.80;;;1.80;;
75165;SDS011;63747;48.042;10.088;2023-12-20T17:37:14;4.57;;;1.77;;
75165;SDS011;63747;48.042;10.088;2023-12-20T17:40:14;6.63;;;2.60;;
75165;SDS011;63747;48.042;10.088;2023-12-20T17:43:15;5.07;;;2.70;;
75165;SDS011;63747;48.042;10.088;2023-12-20T17:46:16;4.27;;;2.10;;
75165;SDS011;63747;48.042;10.088;2023-12-20T17:49:16;4.00;;;1.70;;
75165;SDS011;63747;48.042;10.088;2023-12-20T17:52:21;2.97;;;1.50;;
75165;SDS011;63747;48.042;10.088;2023-12-20T17:55:21;3.90;;;1.70;;
75165;SDS011;63747;48.042;10.088;2023-12-20T17:58:23;7.55;;;2.05;;
75165;SDS011;63747;48.042;10.088;2023-12-20T18:01:24;5.40;;;1.77;;
75165;SDS011;63747;48.042;10.088;2023-12-20T18:04:24;5.30;;;1.60;;
75165;SDS011;63747;48.042;10.088;2023-12-20T18:07:26;3.60;;;1.40;;
75165;SDS011;63747;48.042;10.088;2023-12-20T18:10:27;5.93;;;2.23;;